Time;durP1;ratioP1;P1;durP2;ratioP2;P2;SDS_P1;SDS_P2;PMS_P1;PMS_P2;Temp;Humidity;BMP_temperature;BMP_pressure;BME280_temperature;BME280_humidity;BME280_pressure;Samples;Min_cycle;Max_cycle;Signal;HPM_P1;HPM_P2
2021/06/09 00:05:07;;;;;;;14.20;9.73;;;;;;;13.47;70.82;99230.39;4050518;86;21581;-79
2021/06/09 00:11:11;;;;;;;11.95;8.60;;;;;;;13.54;71.33;99229.05;4051572;86;21058;-77
2021/06/09 00:17:15;;;;;;;13.25;8.43;;;;;;;13.66;71.83;99222.38;4050589;86;21541;-77
2021/06/09 00:23:26;;;;;;;14.35;9.23;;;;;;;13.80;71.43;99225.95;4048774;86;21046;-77
2021/06/09 00:29:30;;;;;;;13.32;8.65;;;;;;;13.70;71.64;99231.44;4072509;85;21064;-77
2021/06/09 00:35:33;;;;;;;17.90;9.30;;;;;;;13.95;71.79;99232.28;4071405;85;21534;-77
2021/06/09 00:41:47;;;;;;;16.67;8.03;;;;;;;13.88;71.72;99228.12;4109604;84;21035;-76
2021/06/09 00:47:52;;;;;;;13.75;8.75;;;;;;;14.01;72.17;99219.12;4106612;85;21526;-76
2021/06/09 00:54:06;;;;;;;;;;;;;;;14.11;72.02;99221.08;4075225;86;21050;-77
2021/06/09 01:00:12;;;;;;;13.83;9.60;;;;;;;14.19;72.40;99225.98;4041758;86;20174;-77
2021/06/09 01:06:28;;;;;;;13.78;8.93;;;;;;;13.88;71.72;99224.80;4071694;86;21016;-80
2021/06/09 01:12:30;;;;;;;14.35;9.85;;;;;;;13.78;72.30;99216.53;4073717;86;21081;-77
2021/06/09 01:19:02;;;;;;;15.03;9.78;;;;;;;13.83;72.28;99215.55;4061478;86;21131;-77
2021/06/09 01:24:54;;;;;;;14.18;10.03;;;;;;;13.84;72.58;99212.98;4038651;86;21093;-76
2021/06/09 01:30:56;;;;;;;15.15;10.15;;;;;;;13.80;72.77;99226.53;4066947;86;21033;-77
2021/06/09 01:36:57;;;;;;;14.63;9.63;;;;;;;13.84;72.38;99221.23;4194905;83;21089;-77
2021/06/09 01:43:02;;;;;;;14.18;9.23;;;;;;;13.74;72.89;99217.89;4205449;83;21547;-77
2021/06/09 01:49:06;;;;;;;13.32;9.88;;;;;;;13.88;73.01;99213.78;4195888;83;21113;-76
2021/06/09 01:55:10;;;;;;;18.00;10.45;;;;;;;13.94;72.92;99217.72;4197594;83;21091;-77
2021/06/09 02:01:12;;;;;;;17.15;10.38;;;;;;;13.98;72.85;99217.73;4201001;83;21050;-76
2021/06/09 02:07:13;;;;;;;18.80;10.82;;;;;;;13.91;72.93;99217.13;4200637;83;21559;-77
2021/06/09 02:13:18;;;;;;;15.78;10.48;;;;;;;13.69;72.63;99217.47;4191988;83;21631;-76
2021/06/09 02:19:23;;;;;;;19.37;11.85;;;;;;;13.29;73.02;99219.12;4195622;83;21006;-77
2021/06/09 02:25:23;;;;;;;17.87;10.70;;;;;;;13.20;73.40;99222.22;4080827;86;21104;-76
2021/06/09 02:31:25;;;;;;;12.73;9.28;;;;;;;13.15;73.96;99213.58;4082481;86;21019;-77
2021/06/09 02:37:26;;;;;;;15.05;10.35;;;;;;;13.32;74.14;99215.02;4081863;86;21075;-77
2021/06/09 02:43:32;;;;;;;21.65;10.80;;;;;;;13.38;74.19;99224.47;4079058;85;21077;-77
2021/06/09 02:49:37;;;;;;;20.05;11.95;;;;;;;13.49;74.38;99214.88;4101681;85;21076;-76
2021/06/09 02:56:02;;;;;;;18.92;10.40;;;;;;;13.33;74.12;99225.41;4094933;85;21007;-77
2021/06/09 03:02:28;;;;;;;21.62;11.97;;;;;;;13.09;74.47;99220.62;4118357;83;21072;-77
2021/06/09 03:08:50;;;;;;;14.40;10.32;;;;;;;13.06;74.79;99226.89;4193255;83;21018;-77
2021/06/09 03:15:14;;;;;;;14.68;10.28;;;;;;;13.35;75.08;99228.58;4194622;83;21690;-76
2021/06/09 03:21:18;;;;;;;14.33;10.23;;;;;;;13.38;74.96;99236.84;4197681;83;21083;-76
2021/06/09 03:27:34;;;;;;;14.63;10.05;;;;;;;13.58;75.19;99238.66;4196645;83;21055;-79
2021/06/09 03:33:43;;;;;;;14.98;11.48;;;;;;;13.82;74.98;99247.58;4191325;83;21340;-76
2021/06/09 03:39:46;;;;;;;19.35;12.15;;;;;;;13.75;74.84;99237.34;4192688;83;21063;-76
2021/06/09 03:45:52;;;;;;;17.25;11.60;;;;;;;13.58;75.22;99244.16;4190782;83;21586;-76
2021/06/09 03:51:59;;;;;;;15.00;9.93;;;;;;;13.66;75.48;99250.69;4186593;83;21065;-76
2021/06/09 03:58:03;;;;;;;18.80;10.97;;;;;;;13.78;75.60;99243.43;4146234;83;41953;-76
2021/06/09 04:04:06;;;;;;;16.77;11.57;;;;;;;13.97;75.62;99245.03;4057156;86;22081;-80
2021/06/09 04:10:11;;;;;;;19.05;12.45;;;;;;;14.04;75.43;99240.35;4052135;86;21083;-76
2021/06/09 04:16:14;;;;;;;13.53;9.55;;;;;;;14.20;75.46;99246.24;4057510;85;21119;-76
2021/06/09 04:22:15;;;;;;;14.90;10.70;;;;;;;14.41;75.32;99252.98;4055744;86;21135;-76
2021/06/09 04:28:19;;;;;;;18.42;12.18;;;;;;;14.60;75.17;99244.30;4056606;86;21772;-77
2021/06/09 04:34:25;;;;;;;15.18;10.88;;;;;;;14.75;75.25;99248.63;4053135;86;21458;-77
2021/06/09 04:40:32;;;;;;;23.35;11.40;;;;;;;14.92;75.14;99243.66;4076904;84;36010;-77
2021/06/09 04:46:34;;;;;;;25.62;12.30;;;;;;;15.05;75.10;99245.59;4100957;85;21381;-77
2021/06/09 04:52:35;;;;;;;28.20;14.03;;;;;;;15.23;75.15;99249.67;4099647;85;21543;-76
2021/06/09 04:58:37;;;;;;;20.25;12.78;;;;;;;15.39;75.31;99250.05;4101991;85;21039;-77
2021/06/09 05:04:39;;;;;;;25.23;15.32;;;;;;;15.65;75.33;99253.07;4098600;85;21055;-77
2021/06/09 05:10:40;;;;;;;20.57;13.75;;;;;;;15.88;75.09;99247.01;4106967;85;21551;-77
2021/06/09 05:16:47;;;;;;;20.60;12.78;;;;;;;16.10;75.03;99253.20;4098034;85;21036;-76
2021/06/09 05:23:10;;;;;;;20.02;11.95;;;;;;;16.37;74.85;99254.16;4097429;85;21139;-77
2021/06/09 05:29:16;;;;;;;21.77;12.63;;;;;;;16.64;74.70;99255.95;4075416;85;21086;-77
2021/06/09 05:35:19;;;;;;;21.27;12.60;;;;;;;16.92;74.35;99261.20;4132825;85;21062;-77
2021/06/09 05:41:26;;;;;;;20.20;11.65;;;;;;;17.10;74.00;99264.55;4130443;85;21079;-77
2021/06/09 05:47:27;;;;;;;17.92;11.95;;;;;;;17.26;73.75;99263.98;4132603;85;21076;-77
2021/06/09 05:53:31;;;;;;;23.30;12.25;;;;;;;17.49;73.66;99255.84;4141416;85;21056;-77
2021/06/09 05:59:37;;;;;;;21.02;11.50;;;;;;;17.75;73.50;99259.84;4131339;85;21038;-77
2021/06/09 06:05:41;;;;;;;18.50;12.27;;;;;;;17.92;73.39;99263.76;4140551;85;21664;-78
2021/06/09 06:11:43;;;;;;;19.32;11.00;;;;;;;18.05;73.12;99263.97;4135205;85;21064;-77
2021/06/09 06:17:45;;;;;;;16.48;10.80;;;;;;;18.18;72.80;99277.44;4132647;85;21105;-77
2021/06/09 06:23:48;;;;;;;13.62;9.38;;;;;;;18.35;72.27;99277.77;4135887;85;20988;-82
2021/06/09 06:29:49;;;;;;;17.80;11.05;;;;;;;18.48;71.94;99277.37;4010713;87;21118;-78
2021/06/09 06:35:52;;;;;;;15.20;10.82;;;;;;;18.61;71.93;99273.61;4022364;87;21075;-77
2021/06/09 06:41:54;;;;;;;20.77;10.55;;;;;;;18.73;71.74;99274.97;4100010;85;21559;-76
2021/06/09 06:47:56;;;;;;;14.00;9.73;;;;;;;18.91;71.44;99271.89;4102276;85;21075;-78
2021/06/09 06:53:59;;;;;;;13.43;8.23;;;;;;;19.23;71.15;99281.81;4101283;85;21725;-78
2021/06/09 07:00:16;;;;;;;14.55;7.65;;;;;;;19.74;71.14;99278.41;4101165;85;21065;-78
2021/06/09 07:06:19;;;;;;;13.93;8.30;;;;;;;20.34;70.24;99281.27;4105520;85;21184;-77
2021/06/09 07:12:21;;;;;;;12.73;8.00;;;;;;;21.15;69.07;99286.97;4133062;85;21039;-79
2021/06/09 07:18:26;;;;;;;14.05;8.63;;;;;;;21.86;68.27;99289.36;4134043;85;21114;-78
2021/06/09 07:24:28;;;;;;;14.43;8.30;;;;;;;22.50;66.87;99290.95;4132680;85;21048;-78
2021/06/09 07:30:35;;;;;;;10.60;7.97;;;;;;;23.09;65.87;99281.98;4136761;85;21017;-78
2021/06/09 07:36:48;;;;;;;11.68;7.65;;;;;;;23.46;64.83;99290.06;4129246;85;21056;-77
2021/06/09 07:42:55;;;;;;;12.73;8.55;;;;;;;23.72;63.61;99292.11;4021699;87;21063;-78
2021/06/09 07:48:59;;;;;;;;;;;;;;;23.72;62.03;99283.73;4018257;86;21132;-78
2021/06/09 07:55:03;;;;;;;12.35;7.25;;;;;;;23.72;60.63;99282.33;4002730;86;20169;-78
2021/06/09 08:01:05;;;;;;;11.88;7.45;;;;;;;23.94;60.90;99279.69;4000076;86;21064;-78
2021/06/09 08:07:06;;;;;;;12.53;7.30;;;;;;;24.17;60.93;99282.61;4000951;87;21057;-78
2021/06/09 08:13:12;;;;;;;10.58;7.95;;;;;;;24.27;59.54;99287.80;4006197;88;20998;-79
2021/06/09 08:19:14;;;;;;;10.15;8.05;;;;;;;23.88;57.41;99288.48;3923854;86;5705334;-79
2021/06/09 08:25:20;;;;;;;7.60;6.87;;;;;;;23.72;58.05;99285.91;4012919;87;21064;-79
2021/06/09 08:31:28;;;;;;;9.18;6.80;;;;;;;23.86;57.85;99288.78;4017607;87;21035;-79
2021/06/09 08:37:30;;;;;;;9.93;7.03;;;;;;;23.99;57.68;99275.54;4010006;87;21391;-79
2021/06/09 08:43:37;;;;;;;10.48;6.75;;;;;;;24.15;57.36;99275.31;4002878;87;21098;-78
2021/06/09 08:49:40;;;;;;;10.72;7.08;;;;;;;24.12;56.60;99279.00;4099527;85;21068;-79
2021/06/09 08:55:41;;;;;;;9.20;6.90;;;;;;;24.15;56.26;99274.67;4101053;85;21051;-78
2021/06/09 09:01:43;;;;;;;10.90;6.85;;;;;;;24.32;55.66;99277.39;4100567;85;21114;-79
2021/06/09 09:07:45;;;;;;;10.08;5.78;;;;;;;24.08;55.45;99281.96;4100374;85;21035;-79
2021/06/09 09:13:47;;;;;;;9.13;6.80;;;;;;;23.95;55.78;99279.83;4097222;85;21539;-79
2021/06/09 09:19:53;;;;;;;9.93;6.25;;;;;;;24.10;55.85;99278.06;4099253;85;22267;-80
2021/06/09 09:25:58;;;;;;;7.50;5.25;;;;;;;24.49;54.77;99272.33;4096827;85;21689;-79
2021/06/09 09:32:07;;;;;;;10.68;4.97;;;;;;;24.88;54.30;99272.13;4067648;86;21070;-79
2021/06/09 09:38:17;;;;;;;4.33;2.83;;;;;;;25.27;53.33;99269.22;4042528;85;21153;-80
2021/06/09 09:44:21;;;;;;;5.25;2.90;;;;;;;25.77;51.30;99260.77;4083549;85;21045;-79
2021/06/09 09:50:32;;;;;;;4.95;2.85;;;;;;;25.77;49.78;99264.36;4050856;86;22302;-80
2021/06/09 09:56:38;;;;;;;4.42;2.42;;;;;;;25.84;47.64;99265.42;4118570;85;21605;-78
2021/06/09 10:02:44;;;;;;;6.47;3.17;;;;;;;26.15;47.90;99255.39;4114239;85;21635;-78
2021/06/09 10:08:44;;;;;;;4.58;2.70;;;;;;;26.38;47.53;99256.68;4086331;85;21387;-79
2021/06/09 10:14:50;;;;;;;2.80;2.47;;;;;;;26.41;45.53;99257.13;4088940;85;21045;-79
2021/06/09 10:21:13;;;;;;;3.58;2.22;;;;;;;26.29;44.40;99221.66;4085369;85;21042;-78
2021/06/09 10:27:18;;;;;;;3.75;2.00;;;;;;;26.29;44.40;99221.66;4033274;85;21534;-79
2021/06/09 10:33:20;;;;;;;5.08;1.92;;;;;;;26.98;42.47;99241.23;4086872;85;21022;-78
2021/06/09 10:39:27;;;;;;;4.40;2.30;;;;;;;27.30;41.39;99245.98;4041347;86;21094;-79
2021/06/09 10:45:31;;;;;;;5.33;2.35;;;;;;;27.60;41.74;99235.54;4090327;85;21029;-79
2021/06/09 10:51:34;;;;;;;6.08;1.55;;;;;;;27.77;40.47;99231.63;4063701;86;21036;-80
2021/06/09 10:57:39;;;;;;;4.80;1.90;;;;;;;27.89;37.47;99229.17;4018849;87;21059;-79
2021/06/09 11:03:45;;;;;;;4.65;1.70;;;;;;;27.48;33.76;99214.11;4091805;85;21094;-77
2021/06/09 11:09:45;;;;;;;2.33;1.57;;;;;;;28.12;36.41;99217.79;4063057;86;21102;-77
2021/06/09 11:15:47;;;;;;;3.60;2.02;;;;;;;27.63;37.54;99217.08;4060743;86;21199;-77
2021/06/09 11:21:48;;;;;;;2.92;1.90;;;;;;;27.43;38.14;99209.16;4060765;86;21030;-77
2021/06/09 11:27:59;;;;;;;6.37;2.33;;;;;;;28.34;37.36;99208.28;4059296;86;21058;-76
2021/06/09 11:34:10;;;;;;;2.72;1.50;;;;;;;28.82;37.22;99197.42;4015254;87;21140;-78
2021/06/09 11:40:15;;;;;;;2.62;2.22;;;;;;;29.52;36.64;99191.69;3910587;87;21103;-79
2021/06/09 11:46:33;;;;;;;3.17;1.85;;;;;;;29.75;36.14;99192.70;4013217;87;21077;-79
2021/06/09 11:53:12;;;;;;;3.37;2.10;;;;;;;29.56;36.40;99189.44;4010750;87;21585;-80
2021/06/09 11:59:07;;;;;;;3.00;2.20;;;;;;;29.87;35.56;99183.05;4009307;87;21113;-79
2021/06/09 12:05:13;;;;;;;3.47;2.35;;;;;;;30.09;36.36;99173.34;4014315;87;21097;-80
2021/06/09 12:11:16;;;;;;;4.47;2.37;;;;;;;29.96;35.68;99161.06;3982560;87;21148;-79
2021/06/09 12:17:25;;;;;;;2.95;2.00;;;;;;;29.70;35.63;99160.98;4015285;87;21046;-80
2021/06/09 12:23:27;;;;;;;3.15;2.10;;;;;;;29.41;35.84;99152.75;4021494;86;21113;-80
2021/06/09 12:29:32;;;;;;;2.27;2.00;;;;;;;29.30;35.12;99151.23;4076682;85;21006;-79
2021/06/09 12:35:36;;;;;;;5.03;2.70;;;;;;;28.73;35.56;99143.42;4072504;85;21042;-80
2021/06/09 12:41:39;;;;;;;7.15;2.00;;;;;;;28.47;35.58;99138.96;4074860;85;21089;-79
2021/06/09 12:47:43;;;;;;;5.72;2.33;;;;;;;28.08;35.71;99137.66;4074157;85;21098;-78
2021/06/09 12:53:46;;;;;;;4.87;2.27;;;;;;;27.69;35.43;99141.22;4074744;85;21650;-79
2021/06/09 12:59:47;;;;;;;3.95;2.42;;;;;;;27.37;36.32;99135.20;4076004;85;21022;-79
2021/06/09 13:06:17;;;;;;;3.92;2.40;;;;;;;27.37;37.05;99130.98;4073487;85;21080;-78
2021/06/09 13:12:29;;;;;;;4.47;3.05;;;;;;;27.36;36.76;99127.39;4103510;84;21072;-79
2021/06/09 13:18:50;;;;;;;6.12;2.22;;;;;;;27.24;36.61;99123.44;4092171;85;21609;-79
2021/06/09 13:24:53;;;;;;;6.70;2.90;;;;;;;27.15;36.47;99123.53;4070773;86;21557;-83
2021/06/09 13:30:54;;;;;;;7.17;2.75;;;;;;;27.07;36.65;99123.14;4015195;87;21018;-78
2021/06/09 13:37:02;;;;;;;8.00;3.12;;;;;;;26.98;37.13;99128.86;4018517;87;21829;-79
2021/06/09 13:43:09;;;;;;;17.05;3.58;;;;;;;26.96;37.87;99134.80;3950954;88;21131;-80
2021/06/09 13:49:11;;;;;;;9.93;3.55;;;;;;;26.87;39.15;99137.69;3957801;88;21136;-79
2021/06/09 13:55:18;;;;;;;8.90;3.95;;;;;;;26.55;40.04;99129.48;3925214;88;21080;-79
2021/06/09 14:01:21;;;;;;;7.55;4.37;;;;;;;26.17;40.75;99117.45;4015118;87;21829;-78
2021/06/09 14:07:23;;;;;;;12.33;5.05;;;;;;;26.13;42.15;99121.83;4076755;86;21539;-78
2021/06/09 14:13:26;;;;;;;7.20;4.72;;;;;;;26.16;41.98;99111.05;4021301;87;21551;-78
2021/06/09 14:19:28;;;;;;;11.30;5.00;;;;;;;26.28;42.22;99108.63;4023889;87;21097;-78
2021/06/09 14:25:37;;;;;;;9.55;4.37;;;;;;;26.52;42.86;99109.39;3949139;89;21129;-78
2021/06/09 14:31:38;;;;;;;5.58;3.90;;;;;;;26.76;42.14;99107.98;4028506;87;21029;-79
2021/06/09 14:37:41;;;;;;;9.25;4.67;;;;;;;26.59;43.20;99120.27;3949360;89;21076;-78
2021/06/09 14:44:11;;;;;;;4.60;3.45;;;;;;;26.41;42.76;99116.18;4033055;86;21116;-79
2021/06/09 14:50:10;;;;;;;5.45;4.10;;;;;;;26.65;42.33;99114.16;4111443;85;21006;-79
2021/06/09 14:56:14;;;;;;;6.47;3.40;;;;;;;26.75;41.46;99114.87;4118430;85;21580;-79
2021/06/09 15:02:17;;;;;;;7.33;3.85;;;;;;;26.84;41.75;99112.76;4040605;86;21084;-78
2021/06/09 15:08:18;;;;;;;4.60;3.55;;;;;;;27.09;41.49;99104.40;4090313;85;21096;-78
2021/06/09 15:14:20;;;;;;;8.10;3.35;;;;;;;27.13;41.94;99122.61;3981208;88;21064;-79
2021/06/09 15:20:21;;;;;;;9.58;4.20;;;;;;;26.44;41.24;99133.47;4122126;85;21076;-78
2021/06/09 15:26:24;;;;;;;6.45;3.12;;;;;;;25.33;42.05;99137.08;4121084;85;21064;-78
2021/06/09 15:32:25;;;;;;;4.03;2.67;;;;;;;24.75;42.08;99132.91;4086921;84;21034;-77
2021/06/09 15:38:27;;;;;;;3.52;1.90;;;;;;;24.25;42.46;99118.23;4040804;86;21549;-79
2021/06/09 15:44:29;;;;;;;2.27;1.57;;;;;;;24.06;42.61;99116.64;4065714;85;21118;-78
2021/06/09 15:50:32;;;;;;;4.65;1.50;;;;;;;24.03;42.08;99113.38;4059398;86;21058;-79
2021/06/09 15:56:34;;;;;;;2.65;1.40;;;;;;;23.95;42.28;99117.67;3961803;88;21046;-78
2021/06/09 16:02:35;;;;;;;1.80;1.60;;;;;;;23.85;42.30;99118.87;3954484;88;21056;-78
2021/06/09 16:08:37;;;;;;;3.42;1.85;;;;;;;23.72;42.34;99108.44;4086906;85;21154;-78
2021/06/09 16:14:38;;;;;;;5.65;2.20;;;;;;;23.47;42.52;99114.23;4091634;85;21034;-78
2021/06/09 16:20:42;;;;;;;4.37;3.20;;;;;;;23.31;43.54;99113.05;4092972;85;21080;-78
2021/06/09 16:26:43;;;;;;;6.33;3.35;;;;;;;22.94;44.44;99114.04;4088177;85;21057;-77
2021/06/09 16:32:44;;;;;;;7.72;3.70;;;;;;;22.57;45.58;99120.55;4090877;85;21669;-78
2021/06/09 16:38:46;;;;;;;4.42;3.65;;;;;;;22.30;46.53;99118.27;4093206;85;21026;-77
2021/06/09 16:44:47;;;;;;;6.80;4.10;;;;;;;22.20;47.57;99122.81;4070790;86;21085;-77
2021/06/09 16:50:49;;;;;;;8.55;4.50;;;;;;;22.20;48.44;99125.00;4073881;86;21976;-77
2021/06/09 17:02:59;;;;;;;8.88;4.12;;;;;;;22.19;49.47;99122.02;4019178;87;21081;-78
2021/06/09 17:09:01;;;;;;;8.90;4.62;;;;;;;22.17;49.54;99122.33;4069013;86;21069;-78
2021/06/09 17:15:07;;;;;;;8.53;5.08;;;;;;;22.17;49.34;99125.90;4066644;86;21062;-77
2021/06/09 17:21:09;;;;;;;6.40;4.70;;;;;;;22.16;49.41;99135.47;4074660;86;21145;-77
2021/06/09 17:27:10;;;;;;;6.42;4.42;;;;;;;22.13;49.45;99134.22;4073929;86;21098;-78
2021/06/09 17:33:11;;;;;;;5.35;4.45;;;;;;;21.98;50.16;99133.90;4003718;87;21033;-78
2021/06/09 17:39:15;;;;;;;6.33;4.90;;;;;;;21.76;50.88;99140.59;3947547;83;9999597;-77
2021/06/09 17:45:17;;;;;;;7.87;5.10;;;;;;;21.49;51.62;99141.78;4078347;85;21101;-77
2021/06/09 17:51:19;;;;;;;8.05;4.70;;;;;;;21.38;52.24;99145.50;4089805;85;21002;-77
2021/06/09 17:57:20;;;;;;;7.37;5.62;;;;;;;21.46;52.71;99146.06;4112676;85;21054;-77
2021/06/09 18:03:22;;;;;;;9.13;6.33;;;;;;;21.51;53.36;99146.91;4091275;85;21045;-77
2021/06/09 18:09:23;;;;;;;11.53;6.45;;;;;;;21.52;53.65;99146.47;4133863;86;21566;-77
2021/06/09 18:15:25;;;;;;;11.18;7.12;;;;;;;21.51;53.94;99153.88;4041079;86;21050;-77
2021/06/09 18:21:26;;;;;;;7.97;6.80;;;;;;;21.48;54.22;99158.94;4111406;85;21058;-77
2021/06/09 18:27:29;;;;;;;7.97;6.75;;;;;;;21.34;54.54;99155.98;4113851;85;20994;-80
2021/06/09 18:33:32;;;;;;;11.03;6.83;;;;;;;21.19;55.15;99162.41;4113147;85;21554;-77
2021/06/09 18:39:34;;;;;;;9.43;6.62;;;;;;;21.13;55.54;99167.72;3854823;87;10000235;-77
2021/06/09 18:45:37;;;;;;;13.62;7.70;;;;;;;21.00;56.35;99165.50;4100325;84;21092;-77
2021/06/09 18:51:44;;;;;;;9.98;7.37;;;;;;;20.83;56.51;99170.92;4076127;85;21035;-77
2021/06/09 18:57:48;;;;;;;13.25;8.45;;;;;;;20.66;56.94;99172.78;4097548;85;21053;-77
2021/06/09 19:03:49;;;;;;;11.40;8.35;;;;;;;20.49;57.38;99185.95;3954956;87;21094;-77
2021/06/09 19:09:51;;;;;;;9.70;7.35;;;;;;;20.33;58.09;99188.73;4078057;85;21019;-77
2021/06/09 19:15:54;;;;;;;12.37;7.05;;;;;;;20.26;58.55;99191.70;4019812;87;21659;-77
2021/06/09 19:21:55;;;;;;;11.97;8.08;;;;;;;20.23;58.76;99199.52;4015227;87;21038;-78
2021/06/09 19:27:57;;;;;;;8.48;6.58;;;;;;;20.20;59.28;99199.00;4018291;87;21130;-77
2021/06/09 19:34:01;;;;;;;12.43;9.08;;;;;;;20.14;59.96;99201.50;4017174;87;21410;-77
2021/06/09 19:40:04;;;;;;;12.10;8.78;;;;;;;20.11;59.88;99212.67;3949168;90;20999;-77
2021/06/09 19:46:06;;;;;;;10.20;6.95;;;;;;;19.99;60.01;99213.36;4019796;86;21999;-77
2021/06/09 19:52:12;;;;;;;14.87;9.48;;;;;;;19.95;60.79;99218.99;4019934;87;21053;-77
2021/06/09 19:58:13;;;;;;;12.03;8.50;;;;;;;19.81;61.07;99219.31;4000412;87;21423;-77
2021/06/09 20:04:15;;;;;;;11.35;8.78;;;;;;;19.84;61.45;99217.06;4018432;87;21053;-77
2021/06/09 20:10:17;;;;;;;16.10;10.38;;;;;;;19.84;61.99;99221.23;3976266;84;9999923;-77
2021/06/09 20:16:19;;;;;;;14.87;10.53;;;;;;;19.58;62.42;99230.55;4025508;87;21846;-75
2021/06/09 20:22:21;;;;;;;17.60;10.72;;;;;;;19.46;62.79;99233.19;4062423;86;21035;-77
2021/06/09 20:28:23;;;;;;;16.30;11.70;;;;;;;19.46;63.19;99228.43;4024853;87;21053;-76
2021/06/09 20:34:24;;;;;;;14.55;10.13;;;;;;;19.36;63.57;99245.28;4093349;85;21125;-77
2021/06/09 20:40:26;;;;;;;20.40;11.83;;;;;;;19.30;64.16;99239.46;4015517;87;21114;-77
2021/06/09 20:46:27;;;;;;;16.00;11.05;;;;;;;19.24;64.56;99239.75;4015428;86;21093;-77
2021/06/09 20:52:29;;;;;;;15.25;10.68;;;;;;;19.23;64.78;99247.88;4073547;85;21113;-77
2021/06/09 20:58:31;;;;;;;18.07;12.20;;;;;;;19.13;65.20;99252.27;4013504;87;21071;-77
2021/06/09 21:04:32;;;;;;;20.97;12.55;;;;;;;19.09;65.51;99254.33;4013204;87;21073;-77
2021/06/09 21:10:35;;;;;;;17.92;11.93;;;;;;;19.02;65.87;99258.02;4073307;85;21578;-79
2021/06/09 21:16:40;;;;;;;21.27;13.62;;;;;;;18.99;66.32;99251.94;4079039;85;21011;-76
2021/06/09 21:22:45;;;;;;;17.85;10.82;;;;;;;18.86;66.48;99253.75;4016231;87;21060;-78
2021/06/09 21:28:46;;;;;;;15.45;11.88;;;;;;;18.66;66.99;99255.11;4009595;87;21090;-76
2021/06/09 21:34:48;;;;;;;17.12;12.53;;;;;;;18.36;66.94;99255.77;4020700;85;21093;-77
2021/06/09 21:40:49;;;;;;;19.92;12.58;;;;;;;18.12;67.09;99253.56;4074866;86;21034;-77
2021/06/09 21:46:51;;;;;;;19.32;13.00;;;;;;;17.91;67.39;99263.59;4089500;85;21403;-77
2021/06/09 21:52:52;;;;;;;18.15;10.93;;;;;;;17.78;67.93;99260.39;4088177;85;21054;-76
2021/06/09 21:58:53;;;;;;;19.48;11.25;;;;;;;17.64;68.32;99262.76;4088548;85;21106;-76
2021/06/09 22:04:55;;;;;;;13.80;11.33;;;;;;;17.57;68.81;99261.45;4086999;85;21030;-76
2021/06/09 22:10:56;;;;;;;17.23;11.93;;;;;;;17.44;68.65;99263.78;4082148;85;21756;-77
2021/06/09 22:16:58;;;;;;;18.60;11.03;;;;;;;17.43;69.17;99259.45;4087746;85;21106;-77
2021/06/09 22:23:01;;;;;;;20.45;12.45;;;;;;;17.13;69.23;99258.81;4087894;85;21733;-75
2021/06/09 22:29:03;;;;;;;17.00;10.50;;;;;;;16.79;69.83;99255.19;4090217;85;21028;-77
2021/06/09 22:35:07;;;;;;;17.15;11.35;;;;;;;16.73;70.31;99254.07;4085195;85;21050;-77
2021/06/09 22:41:09;;;;;;;17.92;9.88;;;;;;;16.72;70.20;99258.05;4087203;85;21495;-77
2021/06/09 22:47:11;;;;;;;17.00;10.82;;;;;;;16.63;70.28;99254.36;4089901;85;21054;-77
2021/06/09 22:53:12;;;;;;;17.20;10.98;;;;;;;16.49;70.70;99251.72;4043730;86;21645;-77
2021/06/09 22:59:14;;;;;;;19.55;11.35;;;;;;;16.44;70.71;99256.33;4121557;83;21034;-80
2021/06/09 23:05:16;;;;;;;19.15;10.03;;;;;;;16.22;70.83;99260.41;4120438;85;21545;-77
2021/06/09 23:11:17;;;;;;;14.87;10.18;;;;;;;16.11;71.20;99258.91;4117947;85;21549;-77
2021/06/09 23:17:19;;;;;;;15.78;10.68;;;;;;;16.12;71.59;99262.64;4121780;85;21065;-77
2021/06/09 23:23:21;;;;;;;13.88;10.35;;;;;;;15.82;71.13;99263.81;4045943;86;21052;-77
2021/06/09 23:29:22;;;;;;;17.92;10.35;;;;;;;15.77;71.47;99267.60;4119547;85;21034;-77
2021/06/09 23:35:24;;;;;;;17.90;10.82;;;;;;;15.71;71.79;99264.46;4118827;85;21078;-77
2021/06/09 23:41:25;;;;;;;13.78;9.23;;;;;;;15.59;71.91;99266.30;4120738;85;21076;-77
2021/06/09 23:47:28;;;;;;;21.45;10.88;;;;;;;15.48;71.77;99264.19;4112369;84;21029;-77
2021/06/09 23:53:31;;;;;;;16.37;10.55;;;;;;;15.46;72.19;99263.79;4113286;85;21077;-77
2021/06/09 23:59:32;;;;;;;14.43;10.15;;;;;;;15.19;72.19;99264.08;4032690;87;21089;-77
